createdAt,value
2017-11-11T00:00:01.750Z,1007.30
2017-11-11T00:01:01.715Z,1007.32
2017-11-11T00:02:01.675Z,1007.32
2017-11-11T00:03:01.634Z,1007.29
2017-11-11T00:04:01.594Z,1007.35
2017-11-11T00:05:01.555Z,1007.34
2017-11-11T00:06:01.514Z,1007.34
2017-11-11T00:07:01.475Z,1007.33
2017-11-11T00:08:01.434Z,1007.37
2017-11-11T00:09:01.394Z,1007.28
2017-11-11T00:10:01.355Z,1007.32
2017-11-11T00:11:01.318Z,1007.31
2017-11-11T00:12:01.276Z,1007.30
2017-11-11T00:13:01.239Z,1007.26
2017-11-11T00:14:01.199Z,1007.25
2017-11-11T00:15:01.165Z,1007.31
2017-11-11T00:16:01.121Z,1007.23
2017-11-11T00:17:01.079Z,1007.22
2017-11-11T00:18:01.039Z,1007.27
2017-11-11T00:19:01.000Z,1007.34
2017-11-11T00:20:00.959Z,1007.27
2017-11-11T00:21:00.921Z,1007.34
2017-11-11T00:22:00.879Z,1007.26
2017-11-11T00:23:00.841Z,1007.29
2017-11-11T00:24:00.806Z,1007.32
2017-11-11T00:25:00.763Z,1007.28
2017-11-11T00:26:00.724Z,1007.28
2017-11-11T00:27:00.684Z,1007.24
2017-11-11T00:28:00.645Z,1007.28
2017-11-11T00:29:00.605Z,1007.31
2017-11-11T00:30:00.563Z,1007.23
2017-11-11T00:31:00.527Z,1007.29
2017-11-11T00:32:00.487Z,1007.25
2017-11-11T00:33:00.447Z,1007.26
2017-11-11T00:34:00.409Z,1007.26
2017-11-11T00:35:00.368Z,1007.17
2017-11-11T00:36:00.332Z,1007.20
2017-11-11T00:37:00.290Z,1007.16
2017-11-11T00:38:00.250Z,1007.22
2017-11-11T00:39:00.211Z,1007.18
2017-11-11T00:40:00.173Z,1007.12
2017-11-11T00:41:00.132Z,1007.19
2017-11-11T00:42:00.094Z,1007.19
2017-11-11T00:43:00.055Z,1007.20
2017-11-11T00:44:00.016Z,1007.18
2017-11-11T00:44:59.977Z,1007.21
2017-11-11T00:45:59.936Z,1007.20
2017-11-11T00:46:59.897Z,1007.16
2017-11-11T00:47:59.857Z,1007.16
2017-11-11T00:48:59.820Z,1007.13
2017-11-11T00:49:59.780Z,1007.08
2017-11-11T00:50:59.773Z,1007.11
2017-11-11T00:51:59.708Z,1007.17
2017-11-11T00:52:59.676Z,1007.15
2017-11-11T00:53:59.622Z,1007.22
2017-11-11T00:54:59.583Z,1007.21
2017-11-11T00:55:59.544Z,1007.12
2017-11-11T00:56:59.503Z,1007.19
2017-11-11T00:57:59.465Z,1007.17
2017-11-11T00:58:59.429Z,1007.24
2017-11-11T00:59:59.414Z,1007.10
2017-11-11T01:00:59.348Z,1007.25
2017-11-11T01:01:59.310Z,1007.23
2017-11-11T01:02:59.267Z,1007.23
2017-11-11T01:03:59.227Z,1007.23
2017-11-11T01:04:59.193Z,1007.16
2017-11-11T01:05:59.151Z,1007.12
2017-11-11T01:06:59.110Z,1007.12
2017-11-11T01:07:59.072Z,1007.10
2017-11-11T01:08:59.033Z,1007.11
2017-11-11T01:09:58.993Z,1007.08
2017-11-11T01:10:58.953Z,1007.09
2017-11-11T01:11:58.914Z,1007.13
2017-11-11T01:12:58.877Z,1006.94
2017-11-11T01:13:58.835Z,1007.01
2017-11-11T01:14:58.794Z,1006.96
2017-11-11T01:15:58.758Z,1006.98
2017-11-11T01:16:58.716Z,1006.95
2017-11-11T01:17:58.679Z,1006.88
2017-11-11T01:18:58.632Z,1006.93
2017-11-11T01:19:58.599Z,1006.92
2017-11-11T01:20:58.559Z,1006.85
2017-11-11T01:21:58.521Z,1006.89
2017-11-11T01:22:58.479Z,1006.89
2017-11-11T01:23:58.439Z,1006.96
2017-11-11T01:24:58.400Z,1006.93
2017-11-11T01:25:58.361Z,1006.91
2017-11-11T01:26:58.321Z,1006.94
2017-11-11T01:27:58.283Z,1006.91
2017-11-11T01:28:58.243Z,1006.91
2017-11-11T01:29:58.203Z,1006.88
2017-11-11T01:30:58.166Z,1006.91
2017-11-11T01:31:58.122Z,1006.91
2017-11-11T01:32:58.085Z,1006.94
2017-11-11T01:33:58.043Z,1006.90
2017-11-11T01:34:58.004Z,1006.84
2017-11-11T01:35:57.965Z,1006.76
2017-11-11T01:36:57.928Z,1006.73
2017-11-11T01:37:57.884Z,1006.79
2017-11-11T01:38:57.845Z,1006.72
2017-11-11T01:39:57.807Z,1006.68
2017-11-11T01:40:57.767Z,1006.60
2017-11-11T01:41:57.729Z,1006.69
2017-11-11T01:42:57.687Z,1006.68
2017-11-11T01:43:57.648Z,1006.74
2017-11-11T01:44:57.607Z,1006.77
2017-11-11T01:45:57.569Z,1006.75
2017-11-11T01:46:57.536Z,1006.64
2017-11-11T01:47:57.505Z,1006.72
2017-11-11T01:48:57.450Z,1006.73
2017-11-11T01:49:57.408Z,1006.62
2017-11-11T01:50:57.370Z,1006.68
2017-11-11T01:51:57.330Z,1006.66
2017-11-11T01:52:57.292Z,1006.54
2017-11-11T01:53:57.251Z,1006.56
2017-11-11T01:54:57.212Z,1006.60
2017-11-11T01:55:57.172Z,1006.57
2017-11-11T01:56:57.132Z,1006.59
2017-11-11T01:57:57.097Z,1006.56
2017-11-11T01:58:57.051Z,1006.61
2017-11-11T01:59:57.013Z,1006.59
2017-11-11T02:00:56.973Z,1006.61
2017-11-11T02:01:56.936Z,1006.59
2017-11-11T02:02:56.893Z,1006.54
2017-11-11T02:03:56.855Z,1006.51
2017-11-11T02:04:56.817Z,1006.51
2017-11-11T02:05:56.775Z,1006.53
2017-11-11T02:06:56.734Z,1006.44
2017-11-11T02:07:56.695Z,1006.50
2017-11-11T02:08:57.025Z,1006.46
2017-11-11T02:09:56.617Z,1006.39
2017-11-11T02:10:56.575Z,1006.47
2017-11-11T02:11:56.536Z,1006.44
2017-11-11T02:12:56.502Z,1006.46
2017-11-11T02:13:56.458Z,1006.44
2017-11-11T02:14:56.415Z,1006.36
2017-11-11T02:15:56.377Z,1006.33
2017-11-11T02:16:56.338Z,1006.28
2017-11-11T02:17:56.299Z,1006.29
2017-11-11T02:18:56.258Z,1006.30
2017-11-11T02:19:56.220Z,1006.29
2017-11-11T02:20:56.180Z,1006.31
2017-11-11T02:21:56.143Z,1006.30
2017-11-11T02:22:56.099Z,1006.28
2017-11-11T02:23:56.060Z,1006.29
2017-11-11T02:24:56.021Z,1006.26
2017-11-11T02:25:55.982Z,1006.28
2017-11-11T02:26:55.944Z,1006.35
2017-11-11T02:27:55.901Z,1006.31
2017-11-11T02:28:55.864Z,1006.27
2017-11-11T02:29:55.821Z,1006.24
2017-11-11T02:30:55.782Z,1006.26
2017-11-11T02:31:55.745Z,1006.27
2017-11-11T02:32:55.704Z,1006.17
2017-11-11T02:33:55.664Z,1006.26
2017-11-11T02:34:55.625Z,1006.22
2017-11-11T02:35:55.584Z,1006.21
2017-11-11T02:36:55.546Z,1006.24
2017-11-11T02:37:55.507Z,1006.24
2017-11-11T02:38:55.463Z,1006.23
2017-11-11T02:39:55.426Z,1006.29
2017-11-11T02:40:55.386Z,1006.26
2017-11-11T02:41:55.347Z,1006.10
2017-11-11T02:42:55.306Z,1006.22
2017-11-11T02:43:55.272Z,1006.18
2017-11-11T02:44:55.228Z,1006.10
2017-11-11T02:45:55.189Z,1006.00
2017-11-11T02:46:55.148Z,1006.06
2017-11-11T02:47:55.108Z,1006.17
2017-11-11T02:48:55.070Z,1006.10
2017-11-11T02:49:55.030Z,1006.06
2017-11-11T02:50:54.990Z,1006.06
2017-11-11T02:51:54.950Z,1006.08
2017-11-11T02:52:54.911Z,1006.07
2017-11-11T02:53:54.871Z,1006.13
2017-11-11T02:54:54.831Z,1006.09
2017-11-11T02:55:54.800Z,1006.05
2017-11-11T02:56:54.766Z,1006.07
2017-11-11T02:57:54.713Z,1005.98
2017-11-11T02:58:54.672Z,1005.99
2017-11-11T02:59:54.633Z,1005.96
2017-11-11T03:00:54.595Z,1005.87
2017-11-11T03:01:54.557Z,1005.85
2017-11-11T03:02:54.513Z,1005.81
2017-11-11T03:03:54.474Z,1005.82
2017-11-11T03:04:54.435Z,1005.80
2017-11-11T03:05:54.397Z,1005.78
2017-11-11T03:06:54.356Z,1005.72
2017-11-11T03:07:54.315Z,1005.83
2017-11-11T03:08:54.279Z,1005.77
2017-11-11T03:09:54.237Z,1005.75
2017-11-11T03:10:54.197Z,1005.75
2017-11-11T03:11:54.165Z,1005.73
2017-11-11T03:12:54.119Z,1005.72
2017-11-11T03:13:54.080Z,1005.71
2017-11-11T03:14:54.039Z,1005.71
2017-11-11T03:15:54.001Z,1005.62
2017-11-11T03:16:53.960Z,1005.63
2017-11-11T03:17:53.922Z,1005.65
2017-11-11T03:18:53.881Z,1005.65
2017-11-11T03:19:53.844Z,1005.64
2017-11-11T03:20:53.803Z,1005.65
2017-11-11T03:21:53.764Z,1005.67
2017-11-11T03:22:53.724Z,1005.67
2017-11-11T03:23:53.683Z,1005.67
2017-11-11T03:24:53.643Z,1005.70
2017-11-11T03:25:53.604Z,1005.77
2017-11-11T03:26:53.563Z,1005.72
2017-11-11T03:27:53.527Z,1005.72
2017-11-11T03:28:53.488Z,1005.69
2017-11-11T03:29:53.449Z,1005.60
2017-11-11T03:30:53.409Z,1005.46
2017-11-11T03:31:53.368Z,1005.48
2017-11-11T03:32:53.331Z,1005.40
2017-11-11T03:33:53.290Z,1005.35
2017-11-11T03:34:53.250Z,1005.34
2017-11-11T03:35:53.212Z,1005.32
2017-11-11T03:36:53.172Z,1005.31
2017-11-11T03:37:53.133Z,1005.34
2017-11-11T03:38:53.092Z,1005.29
2017-11-11T03:39:53.053Z,1005.33
2017-11-11T03:40:53.015Z,1005.34
2017-11-11T03:41:52.976Z,1005.39
2017-11-11T03:42:52.937Z,1005.34
2017-11-11T03:43:52.897Z,1005.40
2017-11-11T03:44:53.046Z,1005.38
2017-11-11T03:45:52.819Z,1005.33
2017-11-11T03:46:52.779Z,1005.30
2017-11-11T03:47:52.740Z,1005.28
2017-11-11T03:48:52.699Z,1005.23
2017-11-11T03:49:52.661Z,1005.21
2017-11-11T03:50:52.616Z,1005.21
2017-11-11T03:51:52.582Z,1005.12
2017-11-11T03:52:52.543Z,1005.16
2017-11-11T03:53:53.356Z,1005.22
2017-11-11T03:54:52.465Z,1005.16
2017-11-11T03:55:52.433Z,1005.12
2017-11-11T03:56:52.387Z,1005.14
2017-11-11T03:57:52.349Z,1005.12
2017-11-11T03:58:52.308Z,1005.09
2017-11-11T03:59:52.273Z,1005.03
2017-11-11T04:00:52.232Z,1005.05
2017-11-11T04:01:52.192Z,1004.94
2017-11-11T04:02:52.156Z,1004.98
2017-11-11T04:03:52.115Z,1004.99
2017-11-11T04:04:52.074Z,1005.04
2017-11-11T04:05:52.037Z,1005.03
2017-11-11T04:06:51.997Z,1005.01
2017-11-11T04:07:51.958Z,1005.02
2017-11-11T04:08:51.918Z,1005.06
2017-11-11T04:09:51.880Z,1004.93
2017-11-11T04:10:51.838Z,1005.02
2017-11-11T04:11:51.801Z,1004.95
2017-11-11T04:12:51.763Z,1005.04
2017-11-11T04:13:51.723Z,1005.06
2017-11-11T04:14:51.687Z,1004.94
2017-11-11T04:15:51.645Z,1005.02
2017-11-11T04:16:51.606Z,1004.93
2017-11-11T04:17:51.569Z,1005.07
2017-11-11T04:18:51.528Z,1004.96
2017-11-11T04:19:51.495Z,1004.99
2017-11-11T04:20:51.452Z,1004.93
2017-11-11T04:21:51.960Z,1004.80
2017-11-11T04:22:51.373Z,1004.88
2017-11-11T04:23:51.351Z,1004.82
2017-11-11T04:24:51.296Z,1004.80
2017-11-11T04:25:51.256Z,1004.80
2017-11-11T04:26:51.215Z,1004.80
2017-11-11T04:27:51.245Z,1004.82
2017-11-11T04:28:51.141Z,1004.80
2017-11-11T04:29:51.101Z,1004.76
2017-11-11T04:30:51.060Z,1004.76
2017-11-11T04:31:51.022Z,1004.77
2017-11-11T04:32:50.984Z,1004.71
2017-11-11T04:33:50.945Z,1004.72
2017-11-11T04:34:50.905Z,1004.79
2017-11-11T04:35:50.864Z,1004.63
2017-11-11T04:36:50.827Z,1004.66
2017-11-11T04:37:50.788Z,1004.63
2017-11-11T04:38:50.750Z,1004.58
2017-11-11T04:39:50.709Z,1004.66
2017-11-11T04:40:50.671Z,1004.62
2017-11-11T04:41:50.634Z,1004.66
2017-11-11T04:42:50.592Z,1004.74
2017-11-11T04:43:50.553Z,1004.78
2017-11-11T04:44:50.516Z,1004.75
2017-11-11T04:45:50.476Z,1004.78
2017-11-11T04:46:50.452Z,1004.74
2017-11-11T04:47:50.399Z,1004.65
2017-11-11T04:48:50.360Z,1004.79
2017-11-11T04:49:50.321Z,1004.77
2017-11-11T04:50:50.281Z,1004.79
2017-11-11T04:51:50.243Z,1004.76
2017-11-11T04:52:50.204Z,1004.77
2017-11-11T04:53:50.165Z,1004.79
2017-11-11T04:54:50.127Z,1004.76
2017-11-11T04:55:50.088Z,1004.73
2017-11-11T04:56:50.048Z,1004.68
2017-11-11T04:57:50.009Z,1004.68
2017-11-11T04:58:49.970Z,1004.65
2017-11-11T04:59:49.931Z,1004.73
2017-11-11T05:00:49.890Z,1004.65
2017-11-11T05:01:49.851Z,1004.76
2017-11-11T05:02:49.813Z,1004.69
2017-11-11T05:03:49.775Z,1004.68
2017-11-11T05:04:49.736Z,1004.75
2017-11-11T05:05:49.698Z,1004.66
2017-11-11T05:06:49.657Z,1004.53
2017-11-11T05:07:49.620Z,1004.55
2017-11-11T05:08:49.580Z,1004.61
2017-11-11T05:09:49.542Z,1004.55
2017-11-11T05:10:49.502Z,1004.56
2017-11-11T05:11:49.464Z,1004.57
2017-11-11T05:12:49.424Z,1004.52
2017-11-11T05:13:49.386Z,1004.47
2017-11-11T05:14:49.346Z,1004.51
2017-11-11T05:15:49.329Z,1004.46
2017-11-11T05:16:49.270Z,1004.36
2017-11-11T05:17:49.230Z,1004.46
2017-11-11T05:18:49.191Z,1004.43
2017-11-11T05:19:49.152Z,1004.42
2017-11-11T05:20:49.114Z,1004.44
2017-11-11T05:21:49.076Z,1004.37
2017-11-11T05:22:49.038Z,1004.35
2017-11-11T05:23:48.995Z,1004.30
2017-11-11T05:24:48.960Z,1004.19
2017-11-11T05:25:48.928Z,1004.22
2017-11-11T05:26:48.882Z,1004.28
2017-11-11T05:27:48.844Z,1004.26
2017-11-11T05:28:48.804Z,1004.24
2017-11-11T05:29:48.771Z,1004.19
2017-11-11T05:30:48.725Z,1004.19
2017-11-11T05:31:48.686Z,1004.19
2017-11-11T05:32:48.650Z,1004.14
2017-11-11T05:33:48.609Z,1004.11
2017-11-11T05:34:49.369Z,1004.17
2017-11-11T05:35:48.530Z,1004.18
2017-11-11T05:36:48.492Z,1004.16
2017-11-11T05:37:48.455Z,1004.11
2017-11-11T05:38:48.414Z,1004.19
2017-11-11T05:39:48.378Z,1004.09
2017-11-11T05:40:48.375Z,1004.08
2017-11-11T05:41:48.299Z,1004.06
2017-11-11T05:42:48.263Z,1004.12
2017-11-11T05:43:48.219Z,1004.07
2017-11-11T05:44:48.182Z,1004.08
2017-11-11T05:45:48.143Z,1004.02
2017-11-11T05:46:48.103Z,1004.00
2017-11-11T05:47:48.069Z,1003.97
2017-11-11T05:48:48.026Z,1003.93
2017-11-11T05:49:47.991Z,1003.95
2017-11-11T05:50:47.949Z,1003.94
2017-11-11T05:51:47.910Z,1003.97
2017-11-11T05:52:47.876Z,1003.87
2017-11-11T05:53:47.835Z,1003.91
2017-11-11T05:54:47.794Z,1003.90
2017-11-11T05:55:47.765Z,1003.86
2017-11-11T05:56:47.716Z,1003.84
2017-11-11T05:57:47.677Z,1003.85
2017-11-11T05:58:47.641Z,1003.80
2017-11-11T05:59:47.599Z,1003.83
2017-11-11T06:00:47.569Z,1003.84
2017-11-11T06:01:47.523Z,1003.70
2017-11-11T06:02:47.482Z,1003.76
2017-11-11T06:03:47.449Z,1003.83
2017-11-11T06:04:47.405Z,1003.85
2017-11-11T06:05:47.367Z,1003.81
2017-11-11T06:06:47.333Z,1003.75
2017-11-11T06:07:47.296Z,1003.81
2017-11-11T06:08:47.249Z,1003.75
2017-11-11T06:09:47.211Z,1003.71
2017-11-11T06:10:47.182Z,1003.65
2017-11-11T06:11:47.133Z,1003.75
2017-11-11T06:12:47.093Z,1003.72
2017-11-11T06:13:47.057Z,1003.79
2017-11-11T06:14:47.017Z,1003.81
2017-11-11T06:15:46.977Z,1003.82
2017-11-11T06:16:46.940Z,1003.83
2017-11-11T06:17:46.899Z,1003.72
2017-11-11T06:18:46.862Z,1003.79
2017-11-11T06:19:46.822Z,1003.75
2017-11-11T06:20:46.783Z,1003.67
2017-11-11T06:21:46.744Z,1003.62
2017-11-11T06:22:46.706Z,1003.65
2017-11-11T06:23:46.666Z,1003.64
2017-11-11T06:24:46.629Z,1003.59
2017-11-11T06:25:46.590Z,1003.61
2017-11-11T06:26:46.553Z,1003.63
2017-11-11T06:27:46.512Z,1003.58
2017-11-11T06:28:46.474Z,1003.55
2017-11-11T06:29:46.433Z,1003.55
2017-11-11T06:30:46.409Z,1003.61
2017-11-11T06:31:46.358Z,1003.44
2017-11-11T06:32:46.317Z,1003.32
2017-11-11T06:33:46.281Z,1003.55
2017-11-11T06:34:46.239Z,1003.49
2017-11-11T06:35:46.201Z,1003.43
2017-11-11T06:36:46.162Z,1003.36
2017-11-11T06:37:46.123Z,1003.47
2017-11-11T06:38:46.087Z,1003.35
2017-11-11T06:39:46.044Z,1003.38
2017-11-11T06:40:46.008Z,1003.28
2017-11-11T06:41:45.967Z,1003.27
2017-11-11T06:42:45.924Z,1003.36
2017-11-11T06:43:45.891Z,1003.38
2017-11-11T06:44:45.852Z,1003.22
2017-11-11T06:45:45.815Z,1003.26
2017-11-11T06:46:45.783Z,1003.16
2017-11-11T06:47:45.735Z,1003.30
2017-11-11T06:48:45.696Z,1003.18
2017-11-11T06:49:45.659Z,1003.20
2017-11-11T06:50:45.617Z,1003.20
2017-11-11T06:51:45.579Z,1003.16
2017-11-11T06:52:45.539Z,1003.20
2017-11-11T06:53:45.505Z,1003.05
2017-11-11T06:54:45.462Z,1003.02
2017-11-11T06:55:45.425Z,1003.06
2017-11-11T06:56:46.136Z,1003.07
2017-11-11T06:57:45.354Z,1002.93
2017-11-11T06:58:45.310Z,1002.89
2017-11-11T06:59:45.269Z,1002.84
2017-11-11T07:00:45.233Z,1002.97
2017-11-11T07:01:45.197Z,1002.88
2017-11-11T07:02:45.152Z,1002.89
2017-11-11T07:03:45.115Z,1002.94
2017-11-11T07:04:45.078Z,1002.96
2017-11-11T07:05:45.041Z,1002.97
2017-11-11T07:06:45.000Z,1003.03
2017-11-11T07:07:44.961Z,1003.01
2017-11-11T07:08:44.924Z,1003.02
2017-11-11T07:09:44.885Z,1003.06
2017-11-11T07:10:44.844Z,1003.05
2017-11-11T07:11:44.807Z,1003.04
2017-11-11T07:12:44.772Z,1003.00
2017-11-11T07:13:44.730Z,1003.07
2017-11-11T07:14:44.752Z,1003.06
2017-11-11T07:15:44.652Z,1002.94
2017-11-11T07:16:44.614Z,1002.94
2017-11-11T07:17:44.577Z,1003.04
2017-11-11T07:18:44.537Z,1002.97
2017-11-11T07:19:44.498Z,1002.92
2017-11-11T07:20:44.460Z,1002.87
2017-11-11T07:21:44.421Z,1002.93
2017-11-11T07:22:44.383Z,1003.22
2017-11-11T07:23:44.343Z,1003.04
2017-11-11T07:24:44.307Z,1003.08
2017-11-11T07:25:44.266Z,1003.08
2017-11-11T07:26:44.228Z,1003.12
2017-11-11T07:27:44.189Z,1003.21
2017-11-11T07:28:44.169Z,1003.13
2017-11-11T07:29:44.112Z,1003.23
2017-11-11T07:30:44.072Z,1003.14
2017-11-11T07:31:44.035Z,1003.04
2017-11-11T07:32:43.997Z,1003.13
2017-11-11T07:33:43.958Z,1003.03
2017-11-11T07:34:44.341Z,1003.12
2017-11-11T07:35:43.873Z,1002.98
2017-11-11T07:36:43.841Z,1002.97
2017-11-11T07:37:43.803Z,1003.07
2017-11-11T07:38:43.763Z,1002.92
2017-11-11T07:39:43.727Z,1002.97
2017-11-11T07:40:43.687Z,1002.96
2017-11-11T07:41:43.649Z,1003.09
2017-11-11T07:42:43.614Z,1003.04
2017-11-11T07:43:43.583Z,1003.04
2017-11-11T07:44:43.532Z,1003.07
2017-11-11T07:45:43.493Z,1002.93
2017-11-11T07:46:43.455Z,1003.08
2017-11-11T07:47:43.419Z,1003.12
2017-11-11T07:48:43.378Z,1003.05
2017-11-11T07:49:43.339Z,1003.01
2017-11-11T07:50:43.300Z,1003.01
2017-11-11T07:51:43.262Z,1002.98
2017-11-11T07:52:43.223Z,1002.98
2017-11-11T07:53:43.192Z,1002.91
2017-11-11T07:54:43.688Z,1002.91
2017-11-11T07:55:43.105Z,1002.94
2017-11-11T07:56:43.068Z,1002.93
2017-11-11T07:57:43.031Z,1002.84
2017-11-11T07:58:42.990Z,1002.92
2017-11-11T07:59:42.952Z,1002.97
2017-11-11T08:00:42.915Z,1002.91
2017-11-11T08:01:42.876Z,1002.89
2017-11-11T08:02:42.836Z,1002.97
2017-11-11T08:03:42.799Z,1002.99
2017-11-11T08:04:42.759Z,1002.93
2017-11-11T08:05:42.726Z,1002.92
2017-11-11T08:06:42.682Z,1002.93
2017-11-11T08:07:42.644Z,1002.90
2017-11-11T08:08:42.604Z,1002.85
2017-11-11T08:09:42.566Z,1002.87
2017-11-11T08:10:42.528Z,1002.91
2017-11-11T08:11:42.490Z,1002.89
2017-11-11T08:12:42.452Z,1002.85
2017-11-11T08:13:42.413Z,1002.85
2017-11-11T08:14:42.368Z,1002.80
2017-11-11T08:15:42.339Z,1002.79
2017-11-11T08:16:42.299Z,1002.73
2017-11-11T08:17:42.258Z,1002.73
2017-11-11T08:18:42.218Z,1002.79
2017-11-11T08:19:42.183Z,1002.75
2017-11-11T08:20:42.143Z,1002.76
2017-11-11T08:21:42.104Z,1002.69
2017-11-11T08:22:42.065Z,1002.67
2017-11-11T08:23:42.028Z,1002.62
2017-11-11T08:24:41.990Z,1002.66
2017-11-11T08:25:41.951Z,1002.62
2017-11-11T08:26:41.953Z,1002.60
2017-11-11T08:27:41.873Z,1002.62
2017-11-11T08:28:41.837Z,1002.54
2017-11-11T08:29:41.798Z,1002.56
2017-11-11T08:30:41.762Z,1002.51
2017-11-11T08:31:41.723Z,1002.54
2017-11-11T08:32:41.683Z,1002.50
2017-11-11T08:33:41.646Z,1002.48
2017-11-11T08:34:41.609Z,1002.52
2017-11-11T08:35:41.568Z,1002.54
2017-11-11T08:36:41.530Z,1002.57
2017-11-11T08:37:41.492Z,1002.57
2017-11-11T08:38:41.447Z,1002.54
2017-11-11T08:39:41.415Z,1002.57
2017-11-11T08:40:41.406Z,1002.56
2017-11-11T08:41:41.340Z,1002.51
2017-11-11T08:42:41.301Z,1002.43
2017-11-11T08:43:41.262Z,1002.44
2017-11-11T08:44:41.226Z,1002.41
2017-11-11T08:45:41.198Z,1002.37
2017-11-11T08:46:41.160Z,1002.35
2017-11-11T08:47:41.109Z,1002.34
2017-11-11T08:48:41.074Z,1002.27
2017-11-11T08:49:41.035Z,1002.24
2017-11-11T08:50:40.998Z,1002.15
2017-11-11T08:51:40.956Z,1002.23
2017-11-11T08:52:40.913Z,1002.21
2017-11-11T08:53:40.882Z,1002.19
2017-11-11T08:54:40.850Z,1002.18
2017-11-11T08:55:40.805Z,1002.24
2017-11-11T08:56:40.768Z,1002.23
2017-11-11T08:57:40.731Z,1002.19
2017-11-11T08:58:40.691Z,1002.21
2017-11-11T08:59:40.652Z,1002.23
2017-11-11T09:00:40.615Z,1002.20
2017-11-11T09:01:40.580Z,1002.21
2017-11-11T09:02:40.718Z,1002.20
2017-11-11T09:03:40.501Z,1002.17
2017-11-11T09:04:40.461Z,1002.15
2017-11-11T09:05:40.426Z,1002.14
2017-11-11T09:06:40.385Z,1002.12
2017-11-11T09:07:40.350Z,1002.14
2017-11-11T09:08:40.305Z,1002.12
2017-11-11T09:09:40.273Z,1002.09
2017-11-11T09:10:40.237Z,1002.14
2017-11-11T09:11:40.195Z,1002.06
2017-11-11T09:12:40.159Z,1002.03
2017-11-11T09:13:40.122Z,1001.98
2017-11-11T09:14:40.083Z,1002.01
2017-11-11T09:15:40.042Z,1001.99
2017-11-11T09:16:40.007Z,1001.98
2017-11-11T09:17:39.968Z,1001.97
2017-11-11T09:18:39.930Z,1001.95
2017-11-11T09:19:39.895Z,1001.93
2017-11-11T09:20:39.854Z,1001.97
2017-11-11T09:21:39.816Z,1001.87
2017-11-11T09:22:39.778Z,1001.89
2017-11-11T09:23:39.739Z,1001.85
2017-11-11T09:24:39.700Z,1001.77
2017-11-11T09:25:39.664Z,1001.80
2017-11-11T09:26:39.626Z,1001.81
2017-11-11T09:27:39.586Z,1001.77
2017-11-11T09:28:39.549Z,1001.81
2017-11-11T09:29:39.529Z,1001.77
2017-11-11T09:30:39.473Z,1001.77
2017-11-11T09:31:39.438Z,1001.74
2017-11-11T09:32:39.397Z,1001.65
2017-11-11T09:33:39.357Z,1001.68
2017-11-11T09:34:39.367Z,1001.69
2017-11-11T09:35:39.321Z,1001.63
2017-11-11T09:36:39.242Z,1001.63
2017-11-11T09:37:39.534Z,1001.58
2017-11-11T09:38:39.213Z,1001.57
2017-11-11T09:39:39.128Z,1001.52
2017-11-11T09:40:39.087Z,1001.55
2017-11-11T09:41:39.049Z,1001.45
2017-11-11T09:42:39.012Z,1001.45
2017-11-11T09:43:38.972Z,1001.48
2017-11-11T09:44:38.934Z,1001.48
2017-11-11T09:45:38.895Z,1001.45
2017-11-11T09:46:38.856Z,1001.39
2017-11-11T09:47:38.818Z,1001.44
2017-11-11T09:48:38.778Z,1001.42
2017-11-11T09:49:38.740Z,1001.42
2017-11-11T09:50:38.702Z,1001.38
2017-11-11T09:51:38.662Z,1001.35
2017-11-11T09:52:38.640Z,1001.35
2017-11-11T09:53:38.587Z,1001.32
2017-11-11T09:54:38.547Z,1001.26
2017-11-11T09:55:38.509Z,1001.26
2017-11-11T09:56:38.469Z,1001.24
2017-11-11T09:57:38.432Z,1001.17
2017-11-11T09:58:38.393Z,1001.11
2017-11-11T09:59:38.355Z,1001.21
2017-11-11T10:00:38.315Z,1001.16
2017-11-11T10:01:38.278Z,1001.15
2017-11-11T10:02:38.242Z,1001.17
2017-11-11T10:03:38.203Z,1001.19
2017-11-11T10:04:38.163Z,1001.19
2017-11-11T10:05:38.122Z,1001.11
2017-11-11T10:06:38.083Z,1001.17
2017-11-11T10:07:38.044Z,1001.19
2017-11-11T10:08:38.006Z,1001.11
2017-11-11T10:09:37.969Z,1001.18
2017-11-11T10:10:37.928Z,1001.12
2017-11-11T10:11:37.892Z,1001.08
2017-11-11T10:12:37.853Z,1001.11
2017-11-11T10:13:37.811Z,1001.06
2017-11-11T10:14:37.775Z,1001.05
2017-11-11T10:15:37.752Z,1000.93
2017-11-11T10:16:37.699Z,1001.00
2017-11-11T10:17:37.661Z,1000.92
2017-11-11T10:18:37.621Z,1000.85
2017-11-11T10:19:37.583Z,1000.84
2017-11-11T10:20:37.546Z,1000.82
2017-11-11T10:21:37.510Z,1000.81
2017-11-11T10:22:37.469Z,1000.77
2017-11-11T10:23:37.432Z,1000.77
2017-11-11T10:24:37.393Z,1000.75
2017-11-11T10:25:37.357Z,1000.74
2017-11-11T10:26:37.314Z,1000.74
2017-11-11T10:27:37.276Z,1000.67
2017-11-11T10:28:37.240Z,1000.73
2017-11-11T10:29:37.200Z,1000.71
2017-11-11T10:30:37.160Z,1000.63
2017-11-11T10:31:37.124Z,1000.69
2017-11-11T10:32:37.085Z,1000.64
2017-11-11T10:33:37.049Z,1000.66
2017-11-11T10:34:37.008Z,1000.64
2017-11-11T10:35:36.970Z,1000.62
2017-11-11T10:36:36.933Z,1000.67
2017-11-11T10:37:36.897Z,1000.65
2017-11-11T10:38:36.857Z,1000.63
2017-11-11T10:39:36.818Z,1000.54
2017-11-11T10:40:36.777Z,1000.50
2017-11-11T10:41:36.739Z,1000.51
2017-11-11T10:42:36.703Z,1000.49
2017-11-11T10:43:36.662Z,1000.51
2017-11-11T10:44:36.626Z,1000.50
2017-11-11T10:45:36.588Z,1000.48
2017-11-11T10:46:36.549Z,1000.42
2017-11-11T10:47:36.512Z,1000.38
2017-11-11T10:48:36.473Z,1000.40
2017-11-11T10:49:36.434Z,1000.38
2017-11-11T10:50:36.394Z,1000.36
2017-11-11T10:51:36.365Z,1000.32
2017-11-11T10:52:36.320Z,1000.34
2017-11-11T10:53:36.280Z,1000.30
2017-11-11T10:54:36.256Z,1000.25
2017-11-11T10:55:36.203Z,1000.18
2017-11-11T10:56:36.167Z,1000.08
2017-11-11T10:57:36.130Z,1000.15
2017-11-11T10:58:36.088Z,1000.07
2017-11-11T10:59:36.052Z,1000.15
2017-11-11T11:00:36.013Z,1000.12
2017-11-11T11:01:35.975Z,1000.09
2017-11-11T11:02:35.938Z,1000.11
2017-11-11T11:03:35.898Z,1000.08
2017-11-11T11:04:35.863Z,1000.05
2017-11-11T11:05:35.823Z,1000.05
2017-11-11T11:06:35.787Z,1000.04
2017-11-11T11:07:35.744Z,999.99
2017-11-11T11:08:35.709Z,999.99
2017-11-11T11:09:35.669Z,1000.01
2017-11-11T11:10:35.630Z,999.99
2017-11-11T11:11:35.595Z,999.93
2017-11-11T11:12:35.558Z,999.97
2017-11-11T11:13:35.518Z,999.89
2017-11-11T11:14:35.482Z,999.91
2017-11-11T11:15:35.443Z,999.85
2017-11-11T11:16:35.405Z,999.85
2017-11-11T11:17:35.378Z,999.86
2017-11-11T11:18:35.329Z,999.86
2017-11-11T11:19:35.292Z,999.83
2017-11-11T11:20:35.253Z,999.82
2017-11-11T11:21:35.480Z,999.80
2017-11-11T11:22:35.177Z,999.74
2017-11-11T11:23:35.138Z,999.71
2017-11-11T11:24:35.100Z,999.76
2017-11-11T11:25:35.066Z,999.71
2017-11-11T11:26:35.025Z,999.74
2017-11-11T11:27:34.987Z,999.72
2017-11-11T11:28:34.951Z,999.74
2017-11-11T11:29:34.911Z,999.66
2017-11-11T11:30:34.874Z,999.70
2017-11-11T11:31:34.846Z,999.68
2017-11-11T11:32:34.797Z,999.60
2017-11-11T11:33:34.811Z,999.60
2017-11-11T11:34:34.721Z,999.58
2017-11-11T11:35:34.684Z,999.54
2017-11-11T11:36:34.648Z,999.54
2017-11-11T11:37:34.610Z,999.57
2017-11-11T11:38:34.571Z,999.61
2017-11-11T11:39:34.532Z,999.57
2017-11-11T11:40:34.496Z,999.54
2017-11-11T11:41:34.459Z,999.49
2017-11-11T11:42:34.419Z,999.53
2017-11-11T11:43:34.375Z,999.54
2017-11-11T11:44:34.342Z,999.49
2017-11-11T11:45:34.307Z,999.41
2017-11-11T11:46:34.269Z,999.33
2017-11-11T11:47:34.232Z,999.36
2017-11-11T11:48:34.794Z,999.31
2017-11-11T11:49:34.156Z,999.36
2017-11-11T11:50:34.118Z,999.30
2017-11-11T11:51:34.081Z,999.18
2017-11-11T11:52:34.045Z,999.26
2017-11-11T11:53:34.186Z,999.24
2017-11-11T11:54:33.966Z,999.18
2017-11-11T11:55:33.930Z,999.13
2017-11-11T11:56:33.892Z,999.14
2017-11-11T11:57:34.273Z,999.10
2017-11-11T11:58:33.816Z,999.15
2017-11-11T11:59:33.777Z,999.16
2017-11-11T12:00:33.742Z,999.10
2017-11-11T12:01:33.705Z,999.11
2017-11-11T12:02:33.662Z,999.10
2017-11-11T12:03:33.630Z,999.09
2017-11-11T12:04:33.589Z,999.08
2017-11-11T12:05:33.551Z,999.16
2017-11-11T12:06:33.512Z,999.08